< Cyclone 196114 1961 Season Cyclone 196201 >
Cyclone 196115 (unnamed)
General InformationTrack Information on Google Maps || ResourceGoogle EarthGE AnimationAtom FeedGeoJSON
Detalied Best Track (Time Zone = UTC)
Year Month Day Hour Lat. Long. Pressure (hPa) Wind (kt) Class Image Chart
1960 7 15 00 -4.9 98.0 999 0 0 -- --
1960 7 15 06 -5.4 97.5 999 0 0 -- --
1960 7 15 12 -5.9 97.0 999 0 0 -- --
1960 7 15 18 -6.5 96.4 999 0 0 -- --
1960 7 16 00 -7.1 95.8 999 0 0 -- --
1960 7 16 06 -7.7 95.1 999 0 0 -- --
1960 7 16 12 -8.4 94.5 999 0 0 -- --
1960 7 16 18 -9.2 93.9 999 0 0 -- --
1960 7 17 00 -10.1 93.4 999 0 0 -- --
1960 7 17 06 -11.1 92.9 999 0 0 -- --
1960 7 17 12 -12.4 92.5 999 0 0 -- --
1960 7 17 18 -14.7 92.5 999 0 0 -- --
1960 7 18 00 -17.2 93.0 999 0 0 -- --
1960 7 18 06 -19.0 93.5 998 0 0 -- --
1960 7 18 12 -20.9 94.5 997 0 0 -- --
1960 7 18 18 -23.3 96.1 996 0 0 -- --
1960 7 19 00 -25.7 97.8 995 0 0 -- --
1960 7 19 06 -27.9 99.3 995 0 0 -- --
1960 7 19 12 -29.9 101.0 995 0 0 -- --
1960 7 19 18 -31.5 103.1 995 0 0 -- --
1960 7 20 00 -32.9 105.3 995 0 0 -- --
1960 7 20 06 -34.2 107.4 995 0 0 -- --
1960 7 20 12 -35.4 109.5 995 0 0 -- --
1960 7 20 18 -36.4 111.4 995 0 0 -- --
1960 7 21 00 -37.3 113.0 995 0 0 -- --
< Cyclone 196114 1961 Season Cyclone 196201 >

Help